Time;durP1;ratioP1;P1;durP2;ratioP2;P2;SDS_P1;SDS_P2;PMS_P1;PMS_P2;Temp;Humidity;BMP_temperature;BMP_pressure;BME280_temperature;BME280_humidity;BME280_pressure;Samples;Min_cycle;Max_cycle;Signal;HPM_P1;HPM_P2
2022/10/13 00:01:23;;;;;;;;;4.67;4.67;;;;;23.82;42.26;101883.94;5075302;28;45766;-70
2022/10/13 00:03:49;;;;;;;;;5.33;5.00;;;;;23.86;42.35;101881.78;5075815;28;45384;-71
2022/10/13 00:06:17;;;;;;;;;7.00;6.00;;;;;23.80;42.26;101877.13;5091427;27;46079;-70
2022/10/13 00:08:44;;;;;;;;;7.67;7.33;;;;;23.86;42.12;101879.13;5075628;27;45399;-70
2022/10/13 00:11:15;;;;;;;;;7.00;5.00;;;;;23.85;42.52;101864.19;5075409;27;45346;-71
2022/10/13 00:13:41;;;;;;;;;5.67;5.67;;;;;23.85;42.23;101853.56;5075800;28;45252;-70
2022/10/13 00:16:08;;;;;;;;;7.67;6.00;;;;;23.84;42.18;101857.19;5075064;27;45315;-70
2022/10/13 00:18:34;;;;;;;;;6.67;5.00;;;;;23.81;42.25;101855.69;5075406;27;45627;-70
2022/10/13 00:20:59;;;;;;;;;7.00;6.33;;;;;23.83;42.56;101861.69;5091328;27;45476;-70
2022/10/13 00:23:25;;;;;;;;;7.00;7.00;;;;;23.83;42.50;101858.22;5075441;28;45405;-71
2022/10/13 00:25:50;;;;;;;;;5.00;5.00;;;;;23.82;42.23;101843.25;5075582;27;45407;-71
2022/10/13 00:28:19;;;;;;;;;4.33;4.00;;;;;23.78;42.42;101845.44;5075202;28;45346;-70
2022/10/13 00:30:45;;;;;;;;;4.67;4.67;;;;;23.82;42.17;101848.56;5075262;28;45345;-70
2022/10/13 00:33:12;;;;;;;;;3.33;3.33;;;;;23.82;42.24;101845.91;5075157;28;45392;-70
2022/10/13 00:35:43;;;;;;;;;8.33;6.00;;;;;23.80;42.06;101839.94;5075576;28;46890;-70
2022/10/13 00:38:09;;;;;;;;;6.00;5.00;;;;;23.81;42.48;101842.41;5075022;28;45343;-70
2022/10/13 00:40:42;;;;;;;;;7.00;6.67;;;;;23.82;42.00;101844.09;5075285;28;45400;-70
2022/10/13 00:43:16;;;;;;;;;5.67;5.67;;;;;23.82;42.27;101852.06;5075342;28;45410;-70
2022/10/13 00:45:41;;;;;;;;;5.00;5.00;;;;;23.82;42.24;101843.25;5074877;28;47271;-70
2022/10/13 00:48:06;;;;;;;;;6.67;6.00;;;;;23.81;42.10;101821.16;5075070;28;45478;-70
2022/10/13 00:50:37;;;;;;;;;7.33;5.33;;;;;23.82;42.15;101811.38;5073947;28;45685;-71
2022/10/13 00:53:04;;;;;;;;;5.67;5.67;;;;;23.82;42.60;101822.00;5070454;28;45507;-71
2022/10/13 00:55:32;;;;;;;;;5.00;5.00;;;;;23.81;42.24;101815.84;5065840;28;47103;-70
2022/10/13 00:58:01;;;;;;;;;6.33;5.33;;;;;23.80;41.97;101821.34;5074847;28;45429;-71
2022/10/13 01:00:27;;;;;;;;;6.00;6.00;;;;;23.82;42.48;101829.97;5075016;28;45315;-70
2022/10/13 01:02:52;;;;;;;;;6.67;5.00;;;;;23.78;42.20;101837.47;5075058;28;45406;-71
2022/10/13 01:05:19;;;;;;;;;6.75;6.50;;;;;23.81;42.43;101841.59;5074543;28;46162;-71
2022/10/13 01:07:48;;;;;;;;;5.33;5.33;;;;;23.76;42.00;101838.63;5074859;28;45421;-70
2022/10/13 01:10:35;;;;;;;;;6.25;6.25;;;;;23.81;42.29;101836.28;5074981;27;45523;-71
2022/10/13 01:13:19;;;;;;;;;6.00;6.00;;;;;23.80;42.43;101839.94;5074941;28;45276;-70
2022/10/13 01:16:00;;;;;;;;;7.00;5.67;;;;;23.79;42.57;101832.94;5075019;28;45480;-70
2022/10/13 01:18:33;;;;;;;;;7.00;5.50;;;;;23.78;42.21;101829.50;5074537;27;45314;-70
2022/10/13 01:21:01;;;;;;;;;6.00;6.00;;;;;23.78;42.37;101829.50;5074802;28;45417;-70
2022/10/13 01:23:32;;;;;;;;;4.67;4.00;;;;;23.78;42.13;101824.19;5074703;28;45597;-70
2022/10/13 01:26:20;;;;;;;;;5.00;5.00;;;;;23.79;42.00;101827.63;5074755;28;45310;-71
2022/10/13 01:29:03;;;;;;;;;7.33;6.33;;;;;23.78;41.95;101816.19;5074106;27;45427;-71
2022/10/13 01:31:40;;;;;;;;;6.00;6.00;;;;;23.78;42.24;101813.53;5074827;28;45523;-70
2022/10/13 01:34:45;;;;;;;;;6.00;5.33;;;;;23.78;42.30;101797.59;5074753;28;45315;-71
2022/10/13 01:37:29;;;;;;;;;5.67;5.00;;;;;23.78;41.92;101778.16;5071768;28;47130;-70
2022/10/13 01:40:23;;;;;;;;;7.00;5.75;;;;;23.77;42.46;101784.47;5072124;28;45466;-71
2022/10/13 01:43:07;;;;;;;;;6.33;6.33;;;;;23.77;42.15;101779.16;5071837;28;45332;-70
2022/10/13 01:45:49;;;;;;;;;5.33;4.33;;;;;23.77;42.26;101776.50;5074705;28;45385;-71
2022/10/13 01:48:16;;;;;;;;;6.67;6.67;;;;;23.76;42.53;101774.84;5075465;28;46295;-70
2022/10/13 01:50:43;;;;;;;;;5.67;5.67;;;;;23.67;42.35;101758.91;5075468;28;45496;-70
2022/10/13 01:53:12;;;;;;;;;6.00;5.00;;;;;23.74;42.20;101773.19;5075471;28;45457;-70
2022/10/13 01:55:51;;;;;;;;;7.33;6.67;;;;;23.75;42.15;101771.38;5075608;27;45359;-70
2022/10/13 01:58:16;;;;;;;;;6.00;6.00;;;;;23.74;42.18;101767.88;5074843;28;45435;-70
2022/10/13 02:00:52;;;;;;;;;8.00;7.00;;;;;23.76;41.85;101767.69;5075606;28;45347;-70
2022/10/13 02:03:33;;;;;;;;;5.33;5.33;;;;;23.76;42.28;101759.72;5075061;28;45332;-70
2022/10/13 02:06:14;;;;;;;;;7.67;7.67;;;;;23.76;42.39;101756.25;5075432;28;45383;-70
2022/10/13 02:08:48;;;;;;;;;6.00;6.00;;;;;23.69;42.34;101748.94;5074959;28;47105;-71
2022/10/13 02:11:17;;;;;;;;;8.67;6.00;;;;;23.77;42.31;101739.28;5064929;28;45365;-71
2022/10/13 02:13:57;;;;;;;;;6.33;5.00;;;;;23.77;42.05;101744.59;5077896;28;45441;-70
2022/10/13 02:16:24;;;;;;;;;7.33;5.00;;;;;23.76;42.00;101742.97;5077434;28;45194;-71
2022/10/13 02:18:50;;;;;;;;;9.33;6.33;;;;;23.67;42.33;101729.69;5077186;28;46164;-70
2022/10/13 02:21:16;;;;;;;;;6.00;5.00;;;;;23.77;41.94;101736.63;5076945;28;45470;-70
2022/10/13 02:23:43;;;;;;;;;7.00;7.00;;;;;23.66;41.81;101714.75;5077543;27;45505;-69
2022/10/13 02:26:10;;;;;;;;;7.00;6.00;;;;;23.77;42.15;101728.66;5077075;28;45431;-70
2022/10/13 02:28:38;;;;;;;;;7.00;6.33;;;;;23.78;42.00;101722.38;5076838;28;46339;-70
2022/10/13 02:31:05;;;;;;;;;6.00;5.67;;;;;23.74;42.14;101697.94;5077467;28;46826;-70
2022/10/13 02:33:31;;;;;;;;;7.33;5.00;;;;;23.78;42.26;101703.75;5077133;27;45525;-70
2022/10/13 02:35:56;;;;;;;;;5.33;5.33;;;;;23.79;42.44;101705.41;5076984;28;45358;-70
2022/10/13 02:38:22;;;;;;;;;7.33;6.33;;;;;23.78;41.61;101712.56;5077232;28;45330;-70
2022/10/13 02:40:47;;;;;;;;;5.00;3.33;;;;;23.79;41.84;101713.38;5076722;27;45336;-70
2022/10/13 02:43:12;;;;;;;;;4.00;4.00;;;;;23.78;41.93;101706.41;5077270;28;45421;-71
2022/10/13 02:45:38;;;;;;;;;6.67;6.00;;;;;23.78;41.99;101698.44;5077175;28;45273;-70
2022/10/13 02:48:03;;;;;;;;;5.00;5.00;;;;;23.80;41.97;101707.06;5076831;28;49439;-70
2022/10/13 02:50:28;;;;;;;;;7.00;6.33;;;;;23.80;42.24;101701.75;5076985;28;45380;-70
2022/10/13 02:52:54;;;;;;;;;6.67;6.00;;;;;23.79;42.00;101706.25;5073799;28;45244;-70
2022/10/13 02:55:19;;;;;;;;;5.33;5.33;;;;;23.80;41.96;101704.41;5098543;27;45310;-69
2022/10/13 02:57:45;;;;;;;;;5.00;5.00;;;;;23.78;41.81;101712.56;5076847;27;45287;-70
2022/10/13 03:00:11;;;;;;;;;6.00;4.33;;;;;23.79;41.95;101700.09;5076965;28;45350;-70
2022/10/13 03:02:36;;;;;;;;;6.33;5.00;;;;;23.78;42.05;101704.59;5076906;28;45464;-70
2022/10/13 03:05:02;;;;;;;;;6.00;5.00;;;;;23.78;41.88;101711.75;5076772;27;45320;-70
2022/10/13 03:07:28;;;;;;;;;6.00;5.00;;;;;23.77;42.31;101704.75;5076696;27;45248;-70
2022/10/13 03:09:53;;;;;;;;;5.00;5.00;;;;;23.76;42.13;101706.56;5075914;27;45360;-70
2022/10/13 03:12:18;;;;;;;;;5.00;5.00;;;;;23.76;41.77;101695.16;5076747;28;45349;-70
2022/10/13 03:14:44;;;;;;;;;7.00;7.00;;;;;23.69;41.93;101684.34;5076586;28;45657;-70
2022/10/13 03:17:10;;;;;;;;;7.33;6.00;;;;;23.75;42.09;101686.34;5076331;28;47243;-70
2022/10/13 03:19:35;;;;;;;;;6.00;6.00;;;;;23.77;41.79;101688.81;5076812;28;45478;-70
2022/10/13 03:22:00;;;;;;;;;7.67;6.00;;;;;23.76;41.82;101697.81;5076247;28;45446;-70
2022/10/13 03:24:26;;;;;;;;;6.00;6.00;;;;;23.74;42.06;101709.41;5076083;28;45443;-70
2022/10/13 03:26:51;;;;;;;;;6.00;5.33;;;;;23.74;42.29;101708.59;5076255;28;46057;-70
2022/10/13 03:29:17;;;;;;;;;6.67;6.67;;;;;23.71;42.33;101692.97;5076365;28;45461;-71
2022/10/13 03:31:43;;;;;;;;;5.00;5.00;;;;;23.74;42.12;101697.94;5076423;28;45377;-70
2022/10/13 03:34:09;;;;;;;;;7.00;4.67;;;;;23.73;41.92;101689.16;5076493;28;45409;-70
2022/10/13 03:36:35;;;;;;;;;8.00;6.00;;;;;23.73;42.39;101686.50;5074502;28;46330;-70
2022/10/13 03:39:01;;;;;;;;;4.00;4.00;;;;;23.72;42.01;101686.66;5075801;28;45347;-70
2022/10/13 03:41:26;;;;;;;;;5.00;5.00;;;;;23.72;42.21;101695.47;5076099;28;45398;-70
2022/10/13 03:43:53;;;;;;;;;8.33;6.67;;;;;23.72;42.22;101681.34;5076048;28;45856;-70
2022/10/13 03:46:18;;;;;;;;;5.00;5.00;;;;;23.71;41.87;101679.69;5076148;28;47232;-70
2022/10/13 03:48:44;;;;;;;;;6.00;5.00;;;;;23.71;41.67;101683.19;5075811;28;45345;-70
2022/10/13 03:51:13;;;;;;;;;6.00;6.00;;;;;23.68;42.18;101683.50;5076418;28;45458;-71
2022/10/13 03:53:38;;;;;;;;;5.67;5.67;;;;;23.71;41.94;101683.19;5065939;27;45482;-70
2022/10/13 03:56:04;;;;;;;;;9.00;7.00;;;;;23.70;42.39;101691.34;5104037;27;47295;-70
2022/10/13 03:58:30;;;;;;;;;5.00;5.00;;;;;23.63;42.21;101685.84;5075747;28;45241;-71
2022/10/13 04:01:00;;;;;;;;;5.33;4.00;;;;;23.72;42.14;101705.28;5075966;27;45382;-70
2022/10/13 04:03:26;;;;;;;;;7.00;5.00;;;;;23.72;42.01;101697.31;5075779;28;45480;-70
2022/10/13 04:05:51;;;;;;;;;7.33;6.00;;;;;23.73;42.10;101691.00;5075784;27;45492;-70
2022/10/13 04:08:16;;;;;;;;;6.25;6.00;;;;;23.68;41.74;101678.19;5074292;27;49087;-69
2022/10/13 04:10:41;;;;;;;;;5.00;5.00;;;;;23.72;42.00;101687.50;5075978;28;45456;-70
2022/10/13 04:13:07;;;;;;;;;7.33;5.33;;;;;23.73;41.71;101683.84;5075562;28;45446;-70
2022/10/13 04:15:39;;;;;;;;;7.50;7.00;;;;;23.73;41.87;101675.84;5075602;28;46224;-70
2022/10/13 04:18:06;;;;;;;;;5.00;5.00;;;;;23.73;42.01;101675.84;5075431;28;45261;-71
2022/10/13 04:20:36;;;;;;;;;6.00;5.00;;;;;23.74;41.91;101684.66;5075423;28;45455;-70
2022/10/13 04:23:02;;;;;;;;;6.33;5.33;;;;;23.74;42.09;101692.63;5075246;27;45438;-70
2022/10/13 04:25:27;;;;;;;;;7.33;7.33;;;;;23.74;41.80;101688.16;5075072;28;45360;-70
2022/10/13 04:27:52;;;;;;;;;5.33;5.00;;;;;23.73;41.82;101686.50;5075552;28;45235;-70
2022/10/13 04:30:18;;;;;;;;;6.33;6.33;;;;;23.71;41.78;101685.84;5075488;28;45214;-70
2022/10/13 04:32:43;;;;;;;;;6.00;4.67;;;;;23.73;42.16;101686.50;5075607;28;45275;-70
2022/10/13 04:35:08;;;;;;;;;5.33;4.33;;;;;23.72;41.91;101687.50;5075343;27;45437;-70
2022/10/13 04:37:33;;;;;;;;;7.00;5.67;;;;;23.73;41.90;101681.19;5074781;28;50139;-70
2022/10/13 04:39:59;;;;;;;;;7.00;5.00;;;;;23.71;41.92;101675.22;5075423;28;45407;-70
2022/10/13 04:42:24;;;;;;;;;9.33;6.67;;;;;23.72;42.09;101674.22;5075285;28;45391;-70
2022/10/13 04:44:49;;;;;;;;;6.00;6.00;;;;;23.71;41.85;101674.38;5075174;28;45459;-70
2022/10/13 04:47:15;;;;;;;;;5.67;5.67;;;;;23.71;42.10;101675.22;5075003;28;45375;-71
2022/10/13 04:49:40;;;;;;;;;7.00;6.00;;;;;23.71;42.00;101680.53;5075312;28;45393;-69
2022/10/13 04:52:05;;;;;;;;;5.67;5.67;;;;;23.68;42.26;101664.91;5074999;28;45469;-70
2022/10/13 04:54:30;;;;;;;;;6.33;6.00;;;;;23.71;42.09;101661.09;5060477;28;49624;-70
2022/10/13 04:56:56;;;;;;;;;8.00;6.33;;;;;23.70;41.93;101659.44;5075207;28;45387;-70
2022/10/13 04:59:21;;;;;;;;;5.00;5.00;;;;;23.70;41.88;101644.34;5075095;28;45486;-70
2022/10/13 05:01:47;;;;;;;;;6.00;6.00;;;;;23.66;41.83;101631.56;5074940;27;45434;-70
2022/10/13 05:04:12;;;;;;;;;6.00;6.00;;;;;23.69;41.85;101631.22;5075099;28;45454;-70
2022/10/13 05:06:40;;;;;;;;;5.33;5.33;;;;;23.69;42.09;101633.88;5074495;27;48068;-70
2022/10/13 05:09:06;;;;;;;;;7.33;7.33;;;;;23.68;41.98;101635.69;5075068;27;45335;-70
2022/10/13 05:11:32;;;;;;;;;7.00;6.67;;;;;23.68;41.98;101630.38;5072396;27;46628;-70
2022/10/13 05:13:58;;;;;;;;;6.00;4.67;;;;;23.68;41.83;101625.06;5063384;28;47009;-70
2022/10/13 05:16:24;;;;;;;;;3.67;3.67;;;;;23.68;42.38;101630.38;5074822;28;45326;-70
2022/10/13 05:18:51;;;;;;;;;2.00;2.00;;;;;23.68;42.05;101634.88;5074932;28;45337;-70
2022/10/13 05:21:20;;;;;;;;;6.00;6.00;;;;;23.67;42.39;101636.72;5077691;28;45397;-70
2022/10/13 05:23:46;;;;;;;;;4.67;4.67;;;;;23.68;42.29;101633.03;5078119;28;46550;-70
2022/10/13 05:26:14;;;;;;;;;8.00;6.33;;;;;23.69;42.00;101631.22;5078275;28;45203;-70
2022/10/13 05:28:40;;;;;;;;;6.00;5.00;;;;;23.69;42.09;101628.56;5078180;28;45324;-70
2022/10/13 05:31:17;;;;;;;;;6.00;6.00;;;;;23.69;42.04;101616.13;5078355;28;45385;-70
2022/10/13 05:33:44;;;;;;;;;5.00;5.00;;;;;23.69;42.23;101621.44;5078221;28;45549;-70
2022/10/13 05:36:21;;;;;;;;;6.33;6.33;;;;;23.69;41.79;101623.25;5077660;28;45418;-70
2022/10/13 05:38:51;;;;;;;;;3.67;3.67;;;;;23.66;41.81;101611.13;5077937;28;45430;-70
2022/10/13 05:41:17;;;;;;;;;5.67;5.00;;;;;23.70;41.79;101616.94;5070538;27;45490;-72
2022/10/13 05:43:42;;;;;;;;;4.00;4.00;;;;;23.57;42.15;101593.59;5056281;27;45556;-74
2022/10/13 05:46:08;;;;;;;;;5.00;5.00;;;;;23.60;41.99;101598.56;5056422;27;45565;-74
2022/10/13 05:48:34;;;;;;;;;7.00;6.00;;;;;23.70;41.94;101620.44;5056250;28;45520;-74
2022/10/13 05:51:04;;;;;;;;;5.33;5.33;;;;;23.65;42.19;101621.94;5056382;27;45435;-74
2022/10/13 05:53:39;;;;;;;;;5.00;4.33;;;;;23.71;41.89;101629.22;5056151;27;47067;-79
2022/10/13 05:56:10;;;;;;;;;5.00;4.33;;;;;23.70;41.92;101630.22;5056172;27;45728;-74
2022/10/13 05:58:42;;;;;;;;;5.00;5.00;;;;;23.66;42.03;101627.06;5056205;27;45511;-74
2022/10/13 06:01:11;;;;;;;;;6.33;6.00;;;;;23.65;42.29;101624.59;5056384;27;45400;-75
2022/10/13 06:03:38;;;;;;;;;5.33;5.00;;;;;23.68;42.31;101640.22;5055414;27;46657;-74
2022/10/13 06:06:04;;;;;;;;;8.33;6.00;;;;;23.68;41.78;101627.72;5057979;27;45340;-73
2022/10/13 06:08:29;;;;;;;;;6.33;5.33;;;;;23.67;41.99;101634.06;5060213;27;45598;-73
2022/10/13 06:10:55;;;;;;;;;7.00;6.00;;;;;23.66;42.29;101635.03;5060582;27;45582;-73
2022/10/13 06:13:20;;;;;;;;;6.67;6.00;;;;;23.67;42.56;101633.22;5073371;27;46078;-74
2022/10/13 06:15:46;;;;;;;;;4.67;4.67;;;;;23.67;42.56;101633.22;5069951;27;45248;-75
2022/10/13 06:18:11;;;;;;;;;7.00;6.00;;;;;23.66;42.45;101635.03;5056464;27;45421;-74
2022/10/13 06:20:36;;;;;;;;;5.67;5.33;;;;;23.68;42.41;101632.22;5055817;27;45463;-73
2022/10/13 06:23:02;;;;;;;;;7.00;6.00;;;;;23.59;42.49;101624.28;5056313;27;45299;-73
2022/10/13 06:25:28;;;;;;;;;9.00;6.00;;;;;23.69;42.24;101636.53;5055999;27;45326;-73
2022/10/13 06:27:55;;;;;;;;;7.33;4.00;;;;;23.68;43.00;101630.38;5066273;27;45392;-74
2022/10/13 06:30:20;;;;;;;;;7.33;7.00;;;;;23.68;42.65;101629.56;5058461;27;45331;-75
2022/10/13 06:32:45;;;;;;;;;5.33;5.33;;;;;23.69;42.45;101639.19;5056256;27;46031;-75
2022/10/13 06:35:10;;;;;;;;;5.00;5.00;;;;;23.70;42.50;101638.19;5056930;27;45499;-74
2022/10/13 06:37:36;;;;;;;;;5.33;5.00;;;;;23.69;42.65;101632.06;5064809;27;45395;-74
2022/10/13 06:40:01;;;;;;;;;7.00;6.67;;;;;23.71;43.05;101634.53;5066984;27;45441;-74
2022/10/13 06:42:30;;;;;;;;;4.67;4.00;;;;;23.71;42.74;101637.19;5057199;28;45597;-73
2022/10/13 06:44:55;;;;;;;;;7.00;6.00;;;;;23.71;42.63;101638.00;5056828;28;45458;-74
2022/10/13 06:47:21;;;;;;;;;5.00;5.00;;;;;23.71;42.44;101638.00;5056289;27;45594;-74
2022/10/13 06:49:46;;;;;;;;;6.67;4.33;;;;;23.71;43.08;101638.00;5057185;28;45393;-74
2022/10/13 06:52:12;;;;;;;;;6.33;4.67;;;;;23.71;42.74;101632.69;5072314;27;46175;-74
2022/10/13 06:54:37;;;;;;;;;5.33;5.00;;;;;23.71;42.96;101643.34;5060169;28;45384;-74
2022/10/13 06:57:05;;;;;;;;;6.00;6.00;;;;;23.72;42.91;101637.03;5077098;28;45538;-74
2022/10/13 06:59:30;;;;;;;;;8.33;6.00;;;;;23.71;42.92;101638.00;5077062;27;45350;-74
2022/10/13 07:01:56;;;;;;;;;7.33;6.00;;;;;23.72;43.14;101633.53;5076416;28;46306;-74
2022/10/13 07:04:21;;;;;;;;;6.00;6.00;;;;;23.72;42.90;101644.16;5072310;28;45353;-74
2022/10/13 07:06:47;;;;;;;;;0.00;0.00;;;;;23.71;42.52;101632.69;5076589;28;45338;-73
2022/10/13 07:09:13;;;;;;;;;5.00;5.00;;;;;23.71;42.80;101637.19;5076714;27;45495;-74
2022/10/13 07:11:38;;;;;;;;;7.33;7.00;;;;;23.71;42.57;101640.66;5075406;28;46270;-74
2022/10/13 07:14:03;;;;;;;;;5.00;3.67;;;;;23.65;42.71;101625.44;5076889;27;45321;-74
2022/10/13 07:16:29;;;;;;;;;5.00;5.00;;;;;23.70;42.72;101622.25;5076484;28;45375;-74
2022/10/13 07:18:54;;;;;;;;;5.00;5.00;;;;;23.70;42.84;101627.56;5076698;28;45527;-73
2022/10/13 07:21:20;;;;;;;;;4.33;4.33;;;;;23.70;42.86;101628.41;5076389;28;48815;-74
2022/10/13 07:23:45;;;;;;;;;5.00;5.00;;;;;23.70;42.72;101630.22;5076471;28;45433;-74
2022/10/13 07:26:13;;;;;;;;;6.33;5.00;;;;;23.70;42.86;101627.56;5076810;28;45348;-73
2022/10/13 07:28:40;;;;;;;;;5.33;5.33;;;;;23.69;43.17;101639.19;5076457;28;45366;-74
2022/10/13 07:31:12;;;;;;;;;6.00;3.67;;;;;23.70;43.06;101646.16;5075965;27;45224;-74
2022/10/13 07:33:38;;;;;;;;;6.67;5.00;;;;;23.68;42.89;101641.00;5076244;28;45389;-74
2022/10/13 07:36:04;;;;;;;;;9.67;5.00;;;;;23.69;42.91;101641.84;5076426;27;45448;-74
2022/10/13 07:38:29;;;;;;;;;5.00;5.00;;;;;23.69;42.70;101645.34;5076378;28;45536;-74
2022/10/13 07:40:54;;;;;;;;;5.00;4.67;;;;;23.68;42.89;101648.97;5076241;28;50213;-74
2022/10/13 07:43:20;;;;;;;;;6.67;6.67;;;;;23.68;42.94;101645.53;5075276;27;45448;-74
2022/10/13 07:45:45;;;;;;;;;4.33;4.33;;;;;23.59;42.90;101624.28;5076013;28;45336;-74
2022/10/13 07:48:11;;;;;;;;;4.67;4.67;;;;;23.69;42.78;101633.88;5076292;28;45312;-74
2022/10/13 07:50:36;;;;;;;;;8.00;5.67;;;;;23.67;43.11;101639.38;5075912;28;46990;-74
2022/10/13 07:53:02;;;;;;;;;5.00;5.00;;;;;23.59;42.78;101634.09;5076343;28;45423;-74
2022/10/13 07:55:27;;;;;;;;;3.00;3.00;;;;;23.68;42.77;101648.19;5076215;28;45383;-74
2022/10/13 07:57:52;;;;;;;;;5.67;5.00;;;;;23.66;42.70;101640.34;5076006;27;45294;-74
2022/10/13 08:00:18;;;;;;;;;5.00;5.00;;;;;23.61;42.84;101629.41;5075616;28;46954;-74
2022/10/13 08:02:43;;;;;;;;;7.67;6.00;;;;;23.68;42.56;101634.88;5075847;28;45509;-74
2022/10/13 08:05:08;;;;;;;;;4.67;4.33;;;;;23.67;42.60;101642.03;5069920;28;45805;-74
2022/10/13 08:07:36;;;;;;;;;5.00;5.00;;;;;23.67;42.45;101643.84;5068231;28;45289;-74
2022/10/13 08:10:02;;;;;;;;;4.00;3.67;;;;;23.65;43.02;101638.72;5075335;27;46287;-74
2022/10/13 08:12:27;;;;;;;;;8.33;6.67;;;;;23.67;43.00;101639.38;5075663;27;45370;-73
2022/10/13 08:14:53;;;;;;;;;6.33;6.00;;;;;23.58;42.91;101633.25;5075525;28;45414;-73
2022/10/13 08:17:18;;;;;;;;;5.00;5.00;;;;;23.68;42.86;101648.19;5075558;28;50614;-74
2022/10/13 08:19:43;;;;;;;;;5.00;5.00;;;;;23.68;43.29;101642.88;5075665;28;49976;-74
2022/10/13 08:22:09;;;;;;;;;5.00;5.00;;;;;23.68;42.86;101635.69;5091417;27;45667;-74
2022/10/13 08:24:35;;;;;;;;;5.00;4.00;;;;;23.68;43.18;101635.69;5075677;27;45339;-74
2022/10/13 08:27:00;;;;;;;;;6.33;5.00;;;;;23.69;43.10;101631.22;5075649;27;45385;-74
2022/10/13 08:29:26;;;;;;;;;5.67;5.67;;;;;23.69;42.74;101628.56;5075299;28;45225;-74
2022/10/13 08:31:52;;;;;;;;;5.00;5.00;;;;;23.65;42.89;101625.44;5075306;28;53961;-74
2022/10/13 08:34:18;;;;;;;;;7.00;6.00;;;;;23.68;42.86;101630.38;5075745;27;45209;-74
2022/10/13 08:36:43;;;;;;;;;5.33;5.33;;;;;23.68;43.14;101625.06;5075198;28;45492;-74
2022/10/13 08:39:09;;;;;;;;;6.00;5.00;;;;;23.65;42.82;101608.66;5075635;28;46554;-73
2022/10/13 08:41:42;;;;;;;;;7.00;6.33;;;;;23.70;42.95;101627.56;5075515;28;45434;-74
2022/10/13 08:44:34;;;;;;;;;6.33;5.67;;;;;23.68;42.66;101614.44;5075125;27;45449;-74
2022/10/13 08:47:14;;;;;;;;;7.67;6.00;;;;;23.68;42.67;101616.28;5075250;28;45318;-74
2022/10/13 08:49:42;;;;;;;;;7.67;5.00;;;;;23.63;42.90;101603.50;5075296;28;46096;-73
2022/10/13 08:52:17;;;;;;;;;9.67;8.00;;;;;23.68;43.01;101614.44;5075090;27;45301;-74
2022/10/13 08:54:42;;;;;;;;;5.33;5.00;;;;;23.68;42.87;101610.97;5063931;28;45412;-74
2022/10/13 08:57:09;;;;;;;;;3.00;3.00;;;;;23.62;43.06;101602.69;5079031;28;45413;-73
2022/10/13 08:59:35;;;;;;;;;5.33;5.00;;;;;23.68;43.01;101603.00;5078386;27;45342;-74
2022/10/13 09:02:08;;;;;;;;;8.00;4.00;;;;;23.68;42.58;101611.78;5078649;28;45336;-74
2022/10/13 09:04:39;;;;;;;;;5.33;5.00;;;;;23.68;42.66;101592.38;5078782;27;45314;-74
2022/10/13 09:07:18;;;;;;;;;5.00;3.67;;;;;23.67;43.08;101596.88;5078736;28;45414;-74
2022/10/13 09:09:44;;;;;;;;;5.00;4.00;;;;;23.68;42.93;101601.16;5078404;27;47214;-73
2022/10/13 09:12:12;;;;;;;;;7.00;4.33;;;;;23.67;42.52;101594.22;5078174;28;45291;-73
2022/10/13 09:14:39;;;;;;;;;5.00;5.00;;;;;23.60;42.86;101591.41;5078588;28;45295;-74
2022/10/13 09:17:13;;;;;;;;;4.00;4.00;;;;;23.68;43.17;101598.50;5078731;28;45426;-74
2022/10/13 09:19:39;;;;;;;;;7.00;5.00;;;;;23.67;43.19;101596.88;5078502;28;46397;-74
2022/10/13 09:22:22;;;;;;;;;6.67;4.00;;;;;23.65;42.81;101604.19;5078224;27;45585;-74
2022/10/13 09:25:05;;;;;;;;;4.00;4.00;;;;;23.58;42.65;101590.75;5078654;28;45373;-74
2022/10/13 09:27:48;;;;;;;;;4.67;4.67;;;;;23.66;42.98;101599.69;5077967;28;45387;-74
2022/10/13 09:30:41;;;;;;;;;3.00;3.00;;;;;23.66;42.66;101605.81;5078346;28;45447;-74
2022/10/13 09:33:12;;;;;;;;;4.00;4.00;;;;;23.66;42.87;101605.81;5078537;28;46445;-74
2022/10/13 09:35:41;;;;;;;;;3.00;3.00;;;;;23.67;42.93;101598.69;5078152;28;45463;-73
2022/10/13 09:38:09;;;;;;;;;4.00;4.00;;;;;23.63;42.65;101600.84;5078038;28;45415;-74
2022/10/13 09:40:36;;;;;;;;;4.00;4.00;;;;;23.67;42.50;101606.66;5078029;28;46509;-73
2022/10/13 09:43:26;;;;;;;;;9.33;5.00;;;;;23.58;42.63;101593.41;5077981;28;45381;-73
2022/10/13 09:45:52;;;;;;;;;2.33;2.33;;;;;23.67;43.09;101602.19;5077925;27;45418;-73
2022/10/13 09:48:28;;;;;;;;;6.33;4.67;;;;;23.68;43.07;101595.03;5078213;28;45377;-74
2022/10/13 09:50:55;;;;;;;;;4.00;4.00;;;;;23.68;42.86;101595.84;5078076;27;45350;-73
2022/10/13 09:53:32;;;;;;;;;6.00;3.67;;;;;23.68;42.66;101587.88;5070775;28;45385;-73
2022/10/13 09:56:06;;;;;;;;;7.00;4.00;;;;;23.68;42.88;101579.91;5072265;28;45212;-73
2022/10/13 09:58:37;;;;;;;;;5.00;4.00;;;;;23.61;42.93;101574.47;5078083;28;45347;-73
2022/10/13 10:01:04;;;;;;;;;4.00;4.00;;;;;23.68;42.57;101585.22;5077972;27;46292;-74
2022/10/13 10:03:33;;;;;;;;;5.00;5.00;;;;;23.67;42.80;101583.59;5077607;28;45448;-73
2022/10/13 10:06:01;;;;;;;;;6.33;5.33;;;;;23.68;42.52;101587.06;5077096;28;45334;-73
2022/10/13 10:08:49;;;;;;;;;2.00;2.00;;;;;23.68;42.81;101582.56;5077422;28;45482;-73
2022/10/13 10:11:18;;;;;;;;;5.00;5.00;;;;;23.67;42.63;101575.63;5077005;27;46529;-73
2022/10/13 10:13:44;;;;;;;;;5.00;4.33;;;;;23.67;42.57;101586.25;5077714;28;45286;-73
2022/10/13 10:16:12;;;;;;;;;5.00;5.00;;;;;23.68;43.15;101577.25;5077503;28;45493;-74
2022/10/13 10:18:47;;;;;;;;;6.00;6.00;;;;;23.68;42.85;101576.44;5077465;28;45612;-73
2022/10/13 10:21:42;;;;;;;;;5.67;4.00;;;;;23.67;42.73;101572.97;5077266;28;46525;-74
2022/10/13 10:24:38;;;;;;;;;6.00;3.33;;;;;23.67;42.55;101569.47;5077367;28;45425;-73
2022/10/13 10:27:17;;;;;;;;;4.33;4.00;;;;;23.66;43.01;101573.94;5077632;27;46418;-74
2022/10/13 10:29:51;;;;;;;;;3.00;2.67;;;;;23.67;43.13;101574.78;5077690;27;45481;-74
2022/10/13 10:32:53;;;;;;;;;5.33;4.33;;;;;23.66;43.08;101575.78;5077312;27;46233;-73
2022/10/13 10:35:46;;;;;;;;;4.00;3.33;;;;;23.66;42.97;101584.56;5077146;28;45400;-73
2022/10/13 10:38:38;;;;;;;;;5.00;4.00;;;;;23.66;42.72;101581.09;5069440;28;45436;-73
2022/10/13 10:41:12;;;;;;;;;5.00;4.00;;;;;23.57;42.68;101565.22;5077071;28;45450;-73
2022/10/13 10:43:45;;;;;;;;;5.00;5.00;;;;;23.64;42.92;101573.31;5077025;28;47155;-73
2022/10/13 10:46:22;;;;;;;;;4.33;4.33;;;;;23.65;43.09;101574.13;5077190;28;45186;-73
2022/10/13 10:48:53;;;;;;;;;4.00;4.00;;;;;23.66;42.71;101575.78;5077055;28;45321;-74
2022/10/13 10:51:19;;;;;;;;;5.00;4.67;;;;;23.66;42.96;101570.47;5077108;27;45333;-74
2022/10/13 10:54:16;;;;;;;;;5.00;5.00;;;;;23.66;42.72;101576.59;5066251;28;45397;-73
2022/10/13 10:56:47;;;;;;;;;5.67;5.00;;;;;23.63;42.91;101572.47;5063482;28;45571;-73
2022/10/13 10:59:21;;;;;;;;;3.67;3.33;;;;;23.65;42.58;101574.13;5077177;28;45335;-73
2022/10/13 11:01:55;;;;;;;;;4.00;3.00;;;;;23.65;42.80;101579.44;5077007;28;45473;-73
2022/10/13 11:04:44;;;;;;;;;2.67;2.67;;;;;23.60;42.75;101559.53;5077090;28;45430;-73
2022/10/13 11:07:34;;;;;;;;;5.33;3.33;;;;;23.65;42.51;101560.84;5065334;28;45401;-73
2022/10/13 11:10:13;;;;;;;;;4.00;3.00;;;;;23.66;43.03;101565.16;5076124;27;45378;-73
2022/10/13 11:12:50;;;;;;;;;4.67;3.33;;;;;23.65;42.45;101561.69;5076723;28;45392;-73
2022/10/13 11:15:22;;;;;;;;;4.00;3.33;;;;;23.66;42.97;101557.16;5076434;28;45314;-74
2022/10/13 11:17:47;;;;;;;;;2.67;2.00;;;;;23.66;43.00;101558.00;5076759;28;45240;-74
2022/10/13 11:20:16;;;;;;;;;5.67;4.00;;;;;23.66;42.81;101551.84;5076613;27;45350;-74
2022/10/13 11:23:01;;;;;;;;;3.00;3.00;;;;;23.66;43.04;101543.88;5076302;27;45318;-74
2022/10/13 11:25:44;;;;;;;;;4.00;3.00;;;;;23.67;42.94;101546.38;5076268;27;46411;-74
2022/10/13 11:28:22;;;;;;;;;3.00;3.00;;;;;23.66;42.75;101541.22;5076442;27;45435;-74
2022/10/13 11:30:51;;;;;;;;;3.33;1.67;;;;;23.65;43.17;101543.09;5076492;28;45344;-74
2022/10/13 11:33:51;;;;;;;;;3.67;3.00;;;;;23.60;42.77;101535.63;5076612;28;45301;-73
2022/10/13 11:36:48;;;;;;;;;3.33;3.33;;;;;23.65;42.54;101543.09;5089608;27;46981;-74